ENQC

Troll C Platform Heliport

Norway
METAR ENQC 211950Z AUTO 15028KT 9999NDV BKN056/// BKN063/// 05/02 Q1006 W///S4
Observed Flight Rules
Jan-21 @ 19:50 UTC (49 minutes ago)
Wind Clouds
150° at 28 knots
  • Broken at 5,600' AGL
  • Broken at 6,300' AGL
Temperatures Readings
Current 5°C / 41°F
Dewpoint 2°C / 36°F
Humidity 81%
Altimeter 29.7" Hg
Pressure 1005.92 hPa
Elevation 20
METAR ENQC 211950Z AUTO 15028KT 9999NDV BKN056/// BKN063/// 05/02 Q1006 W///S4
Observed Flight Rules
Jan-21 @ 19:50 UTC
(49 minutes ago)
Wind
150° at 28 knots
Clouds
  • Broken at 5,600' AGL
  • Broken at 6,300' AGL
Temperature Dewpoint
5°C / 41°F 2°C / 36°F
Humidity Altimeter Pressure
81% 29.7" Hg 1005.92 hPa